sensor_id;sensor_type;location;lat;lon;timestamp;pressure;altitude;pressure_sealevel;temperature;humidity
13241;BME280;6687;47.790;7.322;2022-12-18T06:12:20;100115.75;;;-2.56;89.25
13241;BME280;6687;47.790;7.322;2022-12-18T06:14:47;100113.09;;;-2.57;88.23
13241;BME280;6687;47.790;7.322;2022-12-18T06:17:14;100118.41;;;-2.54;87.92
13241;BME280;6687;47.790;7.322;2022-12-18T06:19:40;100123.94;;;-2.48;87.67
13241;BME280;6687;47.790;7.322;2022-12-18T06:22:07;100124.81;;;-2.48;87.34
13241;BME280;6687;47.790;7.322;2022-12-18T06:24:34;100130.09;;;-2.45;86.94
13241;BME280;6687;47.790;7.322;2022-12-18T06:27:01;100127.56;;;-2.45;86.82
13241;BME280;6687;47.790;7.322;2022-12-18T06:29:29;100136.25;;;-2.41;86.62
13241;BME280;6687;47.790;7.322;2022-12-18T06:31:55;100138.03;;;-2.40;86.52
13241;BME280;6687;47.790;7.322;2022-12-18T06:34:22;100141.78;;;-2.35;86.78
13241;BME280;6687;47.790;7.322;2022-12-18T06:36:49;100145.31;;;-2.33;86.58
13241;BME280;6687;47.790;7.322;2022-12-18T06:39:16;100141.03;;;-2.34;86.21
13241;BME280;6687;47.790;7.322;2022-12-18T06:41:42;100145.53;;;-2.30;86.70
13241;BME280;6687;47.790;7.322;2022-12-18T06:44:10;100145.31;;;-2.33;86.27
13241;BME280;6687;47.790;7.322;2022-12-18T06:46:38;100149.06;;;-2.28;86.40
13241;BME280;6687;47.790;7.322;2022-12-18T06:49:04;100151.84;;;-2.25;86.17
13241;BME280;6687;47.790;7.322;2022-12-18T06:51:32;100154.16;;;-2.28;85.88
13241;BME280;6687;47.790;7.322;2022-12-18T06:53:58;100157.91;;;-2.23;85.96
13241;BME280;6687;47.790;7.322;2022-12-18T06:56:25;100164.53;;;-2.25;85.87
13241;BME280;6687;47.790;7.322;2022-12-18T06:58:52;100161.22;;;-2.24;85.84
13241;BME280;6687;47.790;7.322;2022-12-18T07:01:19;100169.81;;;-2.22;85.90
13241;BME280;6687;47.790;7.322;2022-12-18T07:03:51;100166.53;;;-2.21;85.58
13241;BME280;6687;47.790;7.322;2022-12-18T07:06:21;100181.94;;;-2.17;85.80
13241;BME280;6687;47.790;7.322;2022-12-18T07:08:49;100180.41;;;-2.15;85.74
13241;BME280;6687;47.790;7.322;2022-12-18T07:11:16;100184.72;;;-2.14;85.79
13241;BME280;6687;47.790;7.322;2022-12-18T07:13:45;100188.25;;;-2.12;85.68
13241;BME280;6687;47.790;7.322;2022-12-18T07:16:14;100199.41;;;-2.10;85.91
13241;BME280;6687;47.790;7.322;2022-12-18T07:18:41;100197.84;;;-2.08;85.93
13241;BME280;6687;47.790;7.322;2022-12-18T07:21:11;100192.78;;;-2.08;85.62
13241;BME280;6687;47.790;7.322;2022-12-18T07:23:38;100197.06;;;-2.07;85.89
13241;BME280;6687;47.790;7.322;2022-12-18T07:26:06;100190.13;;;-2.10;85.73
13241;BME280;6687;47.790;7.322;2022-12-18T07:28:34;100202.25;;;-2.06;85.66
13241;BME280;6687;47.790;7.322;2022-12-18T07:31:02;100199.72;;;-2.06;85.81
13241;BME280;6687;47.790;7.322;2022-12-18T07:33:29;100196.50;;;-2.03;85.96
13241;BME280;6687;47.790;7.322;2022-12-18T07:35:58;100201.59;;;-2.03;85.74
13241;BME280;6687;47.790;7.322;2022-12-18T07:38:26;100205.13;;;-2.01;85.80
13241;BME280;6687;47.790;7.322;2022-12-18T07:40:53;100210.88;;;-2.04;86.03
13241;BME280;6687;47.790;7.322;2022-12-18T07:43:20;100206.91;;;-2.00;85.95
13241;BME280;6687;47.790;7.322;2022-12-18T07:45:49;100214.63;;;-1.98;85.96
13241;BME280;6687;47.790;7.322;2022-12-18T07:48:16;100216.94;;;-2.02;86.05
13241;BME280;6687;47.790;7.322;2022-12-18T07:50:43;100204.47;;;-1.98;85.89
13241;BME280;6687;47.790;7.322;2022-12-18T07:53:10;100211.53;;;-2.06;85.59
13241;BME280;6687;47.790;7.322;2022-12-18T07:55:38;100217.06;;;-2.00;85.78
13241;BME280;6687;47.790;7.322;2022-12-18T07:58:04;100213.53;;;-2.02;85.73
13241;BME280;6687;47.790;7.322;2022-12-18T08:00:31;100220.16;;;-2.04;85.63
13241;BME280;6687;47.790;7.322;2022-12-18T08:02:58;100218.38;;;-2.05;85.67
13241;BME280;6687;47.790;7.322;2022-12-18T08:05:25;100216.81;;;-2.03;85.64
13241;BME280;6687;47.790;7.322;2022-12-18T08:07:51;100209.13;;;-2.05;85.77
13241;BME280;6687;47.790;7.322;2022-12-18T08:10:19;100193.78;;;-2.06;85.88
13241;BME280;6687;47.790;7.322;2022-12-18T08:12:50;100205.69;;;-2.05;85.90
13241;BME280;6687;47.790;7.322;2022-12-18T08:15:17;100198.63;;;-2.09;85.83
13241;BME280;6687;47.790;7.322;2022-12-18T08:17:44;100204.25;;;-2.13;85.84
13241;BME280;6687;47.790;7.322;2022-12-18T08:20:11;100197.63;;;-2.11;85.83
13241;BME280;6687;47.790;7.322;2022-12-18T08:22:39;100195.44;;;-2.07;86.05
13241;BME280;6687;47.790;7.322;2022-12-18T08:25:06;100201.16;;;-2.09;85.81
13241;BME280;6687;47.790;7.322;2022-12-18T08:27:33;100185.72;;;-2.12;86.13
13241;BME280;6687;47.790;7.322;2022-12-18T08:30:02;100191.66;;;-2.12;85.99
13241;BME280;6687;47.790;7.322;2022-12-18T08:32:29;100185.72;;;-2.12;86.24
13241;BME280;6687;47.790;7.322;2022-12-18T08:34:58;100190.13;;;-2.10;86.38
13241;BME280;6687;47.790;7.322;2022-12-18T08:37:25;100191.78;;;-2.10;86.40
13241;BME280;6687;47.790;7.322;2022-12-18T08:39:51;100198.53;;;-2.11;86.47
13241;BME280;6687;47.790;7.322;2022-12-18T08:42:18;100194.88;;;-2.14;86.21
13241;BME280;6687;47.790;7.322;2022-12-18T08:45:05;100195.09;;;-2.11;86.38
13241;BME280;6687;47.790;7.322;2022-12-18T08:47:31;100195.63;;;-2.15;86.55
13241;BME280;6687;47.790;7.322;2022-12-18T08:49:58;100194.09;;;-2.13;86.64
13241;BME280;6687;47.790;7.322;2022-12-18T08:52:25;100186.47;;;-2.13;86.51
13241;BME280;6687;47.790;7.322;2022-12-18T08:54:52;100191.66;;;-2.12;86.53
13241;BME280;6687;47.790;7.322;2022-12-18T08:57:18;100183.06;;;-2.14;86.65
13241;BME280;6687;47.790;7.322;2022-12-18T08:59:45;100189.81;;;-2.14;86.75
13241;BME280;6687;47.790;7.322;2022-12-18T09:02:13;100186.28;;;-2.16;86.59
13241;BME280;6687;47.790;7.322;2022-12-18T09:04:40;100183.75;;;-2.16;86.67
13241;BME280;6687;47.790;7.322;2022-12-18T09:07:07;100175.75;;;-2.21;86.71
13241;BME280;6687;47.790;7.322;2022-12-18T09:09:34;100178.75;;;-2.15;86.56
13241;BME280;6687;47.790;7.322;2022-12-18T09:12:02;100182.50;;;-2.22;86.50
13241;BME280;6687;47.790;7.322;2022-12-18T09:14:29;100178.66;;;-2.16;86.57
13241;BME280;6687;47.790;7.322;2022-12-18T09:16:56;100180.97;;;-2.20;86.55
13241;BME280;6687;47.790;7.322;2022-12-18T09:19:24;100179.28;;;-2.19;86.37
13241;BME280;6687;47.790;7.322;2022-12-18T09:21:51;100177.66;;;-2.18;86.37
13241;BME280;6687;47.790;7.322;2022-12-18T09:24:18;100184.16;;;-2.22;86.14
13241;BME280;6687;47.790;7.322;2022-12-18T09:26:44;100181.75;;;-2.21;86.29
13241;BME280;6687;47.790;7.322;2022-12-18T09:29:11;100185.72;;;-2.24;86.29
13241;BME280;6687;47.790;7.322;2022-12-18T09:31:38;100186.59;;;-2.24;86.45
13241;BME280;6687;47.790;7.322;2022-12-18T09:34:05;100187.59;;;-2.22;86.08
13241;BME280;6687;47.790;7.322;2022-12-18T09:36:34;100204.16;;;-2.27;86.17
13241;BME280;6687;47.790;7.322;2022-12-18T09:39:00;100200.81;;;-2.26;85.93
13241;BME280;6687;47.790;7.322;2022-12-18T09:41:40;100199.06;;;-2.27;86.01
13241;BME280;6687;47.790;7.322;2022-12-18T09:44:18;100199.84;;;-2.28;86.09
13241;BME280;6687;47.790;7.322;2022-12-18T09:46:49;100200.28;;;-2.22;85.83
13241;BME280;6687;47.790;7.322;2022-12-18T09:49:22;100190.13;;;-2.22;85.88
13241;BME280;6687;47.790;7.322;2022-12-18T09:51:54;100185.91;;;-2.21;85.86
13241;BME280;6687;47.790;7.322;2022-12-18T09:54:26;100181.94;;;-2.17;85.98
13241;BME280;6687;47.790;7.322;2022-12-18T09:56:57;100175.34;;;-2.15;85.91
13241;BME280;6687;47.790;7.322;2022-12-18T09:59:30;100169.25;;;-2.17;86.01
13241;BME280;6687;47.790;7.322;2022-12-18T10:01:58;100173.13;;;-2.23;86.29
13241;BME280;6687;47.790;7.322;2022-12-18T10:04:28;100174.69;;;-2.13;85.99
13241;BME280;6687;47.790;7.322;2022-12-18T10:07:01;100177.56;;;-2.08;86.27
13241;BME280;6687;47.790;7.322;2022-12-18T10:09:33;100170.69;;;-2.09;86.17
13241;BME280;6687;47.790;7.322;2022-12-18T10:12:08;100167.81;;;-2.02;86.48
13241;BME280;6687;47.790;7.322;2022-12-18T10:14:45;100163.84;;;-1.98;86.52
13241;BME280;6687;47.790;7.322;2022-12-18T10:17:24;100164.97;;;-1.95;86.49
13241;BME280;6687;47.790;7.322;2022-12-18T10:19:56;100177.09;;;-1.91;87.09
13241;BME280;6687;47.790;7.322;2022-12-18T10:22:39;100173.34;;;-1.96;87.07
13241;BME280;6687;47.790;7.322;2022-12-18T10:25:17;100163.84;;;-1.87;87.41
13241;BME280;6687;47.790;7.322;2022-12-18T10:27:47;100162.50;;;-1.82;87.51
13241;BME280;6687;47.790;7.322;2022-12-18T10:30:16;100156.31;;;-1.85;87.30
13241;BME280;6687;47.790;7.322;2022-12-18T10:32:43;100160.75;;;-1.83;87.19
13241;BME280;6687;47.790;7.322;2022-12-18T10:35:17;100164.69;;;-1.74;87.39
13241;BME280;6687;47.790;7.322;2022-12-18T10:38:06;100161.28;;;-1.75;87.21
13241;BME280;6687;47.790;7.322;2022-12-18T10:40:48;100153.41;;;-1.66;87.79
13241;BME280;6687;47.790;7.322;2022-12-18T10:43:19;100148.56;;;-1.63;87.58
13241;BME280;6687;47.790;7.322;2022-12-18T10:46:02;100147.19;;;-1.58;87.94
13241;BME280;6687;47.790;7.322;2022-12-18T10:48:31;100145.88;;;-1.53;88.11
13241;BME280;6687;47.790;7.322;2022-12-18T10:50:59;100136.69;;;-1.51;87.97
13241;BME280;6687;47.790;7.322;2022-12-18T10:53:29;100141.41;;;-1.44;88.14
13241;BME280;6687;47.790;7.322;2022-12-18T10:55:58;100133.00;;;-1.43;88.11
13241;BME280;6687;47.790;7.322;2022-12-18T10:58:27;100144.28;;;-1.39;88.45
13241;BME280;6687;47.790;7.322;2022-12-18T11:01:03;100136.94;;;-1.34;88.51
13241;BME280;6687;47.790;7.322;2022-12-18T11:03:32;100133.41;;;-1.36;88.47
13241;BME280;6687;47.790;7.322;2022-12-18T11:06:09;100140.69;;;-1.29;88.45
13241;BME280;6687;47.790;7.322;2022-12-18T11:08:37;100130.94;;;-1.23;88.39
13241;BME280;6687;47.790;7.322;2022-12-18T11:11:09;100125.84;;;-1.23;88.04
13241;BME280;6687;47.790;7.322;2022-12-18T11:13:55;100131.13;;;-1.20;88.25
13241;BME280;6687;47.790;7.322;2022-12-18T11:16:25;100127.59;;;-1.22;88.30
13241;BME280;6687;47.790;7.322;2022-12-18T11:18:52;100122.94;;;-1.16;88.13
13241;BME280;6687;47.790;7.322;2022-12-18T11:21:19;100130.19;;;-1.09;88.21
13241;BME280;6687;47.790;7.322;2022-12-18T11:23:49;100125.41;;;-1.04;88.10
13241;BME280;6687;47.790;7.322;2022-12-18T11:26:17;100122.19;;;-1.02;88.21
13241;BME280;6687;47.790;7.322;2022-12-18T11:28:46;100123.97;;;-1.01;88.22
13241;BME280;6687;47.790;7.322;2022-12-18T11:31:20;100122.63;;;-0.95;88.30
13241;BME280;6687;47.790;7.322;2022-12-18T11:33:54;100112.63;;;-0.92;88.00
13241;BME280;6687;47.790;7.322;2022-12-18T11:36:23;100119.69;;;-0.88;87.80
13241;BME280;6687;47.790;7.322;2022-12-18T11:38:54;100115.97;;;-0.93;87.97
13241;BME280;6687;47.790;7.322;2022-12-18T11:41:25;100125.06;;;-0.84;87.81
13241;BME280;6687;47.790;7.322;2022-12-18T11:44:19;100114.34;;;-0.79;87.74
13241;BME280;6687;47.790;7.322;2022-12-18T11:46:55;100111.88;;;-0.78;87.77
13241;BME280;6687;47.790;7.322;2022-12-18T11:49:30;100108.75;;;-0.74;87.84
13241;BME280;6687;47.790;7.322;2022-12-18T11:52:04;100103.66;;;-0.74;87.50
13241;BME280;6687;47.790;7.322;2022-12-18T11:54:37;100102.19;;;-0.70;87.61
13241;BME280;6687;47.790;7.322;2022-12-18T11:57:10;100102.50;;;-0.66;87.65
13241;BME280;6687;47.790;7.322;2022-12-18T11:59:50;100089.00;;;-0.65;87.59
13241;BME280;6687;47.790;7.322;2022-12-18T12:02:33;100072.53;;;-0.56;87.58
13241;BME280;6687;47.790;7.322;2022-12-18T12:05:18;100069.78;;;-0.46;87.14
13241;BME280;6687;47.790;7.322;2022-12-18T12:07:52;100076.84;;;-0.42;86.90
13241;BME280;6687;47.790;7.322;2022-12-18T12:10:36;100070.19;;;-0.40;86.72
13241;BME280;6687;47.790;7.322;2022-12-18T12:13:18;100077.22;;;-0.36;86.79
13241;BME280;6687;47.790;7.322;2022-12-18T12:15:58;100069.78;;;-0.33;86.65
13241;BME280;6687;47.790;7.322;2022-12-18T12:18:35;100070.00;;;-0.30;86.56
13241;BME280;6687;47.790;7.322;2022-12-18T12:21:07;100069.47;;;-0.24;86.29
13241;BME280;6687;47.790;7.322;2022-12-18T12:23:45;100058.53;;;-0.23;86.33
13241;BME280;6687;47.790;7.322;2022-12-18T12:26:21;100061.34;;;-0.18;86.20
13241;BME280;6687;47.790;7.322;2022-12-18T12:29:01;100064.88;;;-0.16;86.23
13241;BME280;6687;47.790;7.322;2022-12-18T12:31:39;100071.53;;;-0.18;86.45
13241;BME280;6687;47.790;7.322;2022-12-18T12:34:16;100068.59;;;-0.11;86.04
13241;BME280;6687;47.790;7.322;2022-12-18T12:36:54;100065.06;;;-0.13;86.40
13241;BME280;6687;47.790;7.322;2022-12-18T12:39:28;100066.22;;;-0.08;86.48
13241;BME280;6687;47.790;7.322;2022-12-18T12:41:58;100067.19;;;-0.06;86.45
13241;BME280;6687;47.790;7.322;2022-12-18T12:44:45;100074.84;;;-0.06;86.42
13241;BME280;6687;47.790;7.322;2022-12-18T12:47:15;100077.00;;;0.01;86.11
13241;BME280;6687;47.790;7.322;2022-12-18T12:49:43;100073.69;;;0.02;85.58
13241;BME280;6687;47.790;7.322;2022-12-18T12:52:16;100073.94;;;0.07;85.27
13241;BME280;6687;47.790;7.322;2022-12-18T12:54:44;100066.19;;;0.05;85.35
13241;BME280;6687;47.790;7.322;2022-12-18T12:57:16;100061.09;;;0.05;85.44
13241;BME280;6687;47.790;7.322;2022-12-18T12:59:51;100068.97;;;0.08;85.28
13241;BME280;6687;47.790;7.322;2022-12-18T13:02:29;100064.84;;;0.10;85.03
13241;BME280;6687;47.790;7.322;2022-12-18T13:05:03;100062.56;;;0.15;84.87
13241;BME280;6687;47.790;7.322;2022-12-18T13:07:35;100079.22;;;0.10;85.25
13241;BME280;6687;47.790;7.322;2022-12-18T13:10:31;100073.44;;;0.12;85.22
13241;BME280;6687;47.790;7.322;2022-12-18T13:13:02;100080.13;;;0.10;85.49
13241;BME280;6687;47.790;7.322;2022-12-18T13:15:32;100069.94;;;0.10;85.37
13241;BME280;6687;47.790;7.322;2022-12-18T13:18:05;100075.03;;;0.10;85.56
13241;BME280;6687;47.790;7.322;2022-12-18T13:20:36;100076.41;;;0.05;85.95
13241;BME280;6687;47.790;7.322;2022-12-18T13:23:20;100067.97;;;0.06;86.14
13241;BME280;6687;47.790;7.322;2022-12-18T13:25:53;100062.88;;;0.06;86.22
13241;BME280;6687;47.790;7.322;2022-12-18T13:28:23;100061.47;;;0.11;86.13
13241;BME280;6687;47.790;7.322;2022-12-18T13:31:10;100060.72;;;0.12;85.87
13241;BME280;6687;47.790;7.322;2022-12-18T13:33:43;100057.34;;;0.13;85.83
13241;BME280;6687;47.790;7.322;2022-12-18T13:39:23;100060.50;;;0.09;86.22
13241;BME280;6687;47.790;7.322;2022-12-18T13:41:52;100065.00;;;0.13;86.11
13241;BME280;6687;47.790;7.322;2022-12-18T13:44:29;100054.22;;;0.17;85.82
13241;BME280;6687;47.790;7.322;2022-12-18T13:46:58;100054.09;;;0.16;85.79
13241;BME280;6687;47.790;7.322;2022-12-18T13:49:30;100056.75;;;0.17;86.07
13241;BME280;6687;47.790;7.322;2022-12-18T13:51:59;100055.19;;;0.19;85.60
13241;BME280;6687;47.790;7.322;2022-12-18T13:54:30;100060.28;;;0.19;85.65
13241;BME280;6687;47.790;7.322;2022-12-18T13:57:00;100040.97;;;0.23;85.40
13241;BME280;6687;47.790;7.322;2022-12-18T13:59:33;100042.75;;;0.24;85.25
13241;BME280;6687;47.790;7.322;2022-12-18T14:02:07;100041.06;;;0.25;85.40
13241;BME280;6687;47.790;7.322;2022-12-18T14:04:38;100048.72;;;0.25;85.20
13241;BME280;6687;47.790;7.322;2022-12-18T14:07:07;100044.59;;;0.27;85.15
13241;BME280;6687;47.790;7.322;2022-12-18T14:09:40;100049.06;;;0.31;85.08
13241;BME280;6687;47.790;7.322;2022-12-18T14:12:15;100046.94;;;0.24;85.36
13241;BME280;6687;47.790;7.322;2022-12-18T14:15:02;100043.59;;;0.25;85.77
13241;BME280;6687;47.790;7.322;2022-12-18T14:17:31;100042.13;;;0.28;85.60
13241;BME280;6687;47.790;7.322;2022-12-18T14:19:58;100043.41;;;0.22;85.89
13241;BME280;6687;47.790;7.322;2022-12-18T14:22:26;100045.44;;;0.27;85.96
13241;BME280;6687;47.790;7.322;2022-12-18T14:25:22;100043.78;;;0.28;86.25
13241;BME280;6687;47.790;7.322;2022-12-18T14:27:51;100037.31;;;0.33;86.04
13241;BME280;6687;47.790;7.322;2022-12-18T14:30:30;100040.81;;;0.35;86.01
13241;BME280;6687;47.790;7.322;2022-12-18T14:33:02;100040.63;;;0.32;86.40
13241;BME280;6687;47.790;7.322;2022-12-18T14:35:29;100049.28;;;0.34;86.48
13241;BME280;6687;47.790;7.322;2022-12-18T14:38:20;100054.28;;;0.32;86.57
13241;BME280;6687;47.790;7.322;2022-12-18T14:40:47;100049.44;;;0.37;86.66
13241;BME280;6687;47.790;7.322;2022-12-18T14:43:14;100059.84;;;0.40;86.49
13241;BME280;6687;47.790;7.322;2022-12-18T14:45:43;100047.09;;;0.40;86.47
13241;BME280;6687;47.790;7.322;2022-12-18T14:48:16;100051.38;;;0.41;86.38
13241;BME280;6687;47.790;7.322;2022-12-18T14:50:43;100048.06;;;0.42;86.41
13241;BME280;6687;47.790;7.322;2022-12-18T14:53:22;100049.81;;;0.43;86.31
13241;BME280;6687;47.790;7.322;2022-12-18T14:55:50;100050.59;;;0.42;86.38
13241;BME280;6687;47.790;7.322;2022-12-18T14:58:17;100048.06;;;0.42;86.22
13241;BME280;6687;47.790;7.322;2022-12-18T15:00:46;100050.66;;;0.44;86.13
13241;BME280;6687;47.790;7.322;2022-12-18T15:03:18;100047.34;;;0.45;86.19
13241;BME280;6687;47.790;7.322;2022-12-18T15:05:46;100051.38;;;0.41;86.33
13241;BME280;6687;47.790;7.322;2022-12-18T15:08:29;100054.81;;;0.42;86.27
13241;BME280;6687;47.790;7.322;2022-12-18T15:10:57;100054.91;;;0.43;86.21
13241;BME280;6687;47.790;7.322;2022-12-18T15:13:24;100060.00;;;0.43;86.30
13241;BME280;6687;47.790;7.322;2022-12-18T15:15:53;100068.09;;;0.36;86.42
13241;BME280;6687;47.790;7.322;2022-12-18T15:18:23;100067.53;;;0.42;86.50
13241;BME280;6687;47.790;7.322;2022-12-18T15:20:56;100070.19;;;0.43;86.48
13241;BME280;6687;47.790;7.322;2022-12-18T15:23:27;100071.78;;;0.41;86.49
13241;BME280;6687;47.790;7.322;2022-12-18T15:25:55;100070.91;;;0.41;86.80
13241;BME280;6687;47.790;7.322;2022-12-18T15:28:24;100079.63;;;0.44;86.58
13241;BME280;6687;47.790;7.322;2022-12-18T15:31:06;100072.84;;;0.45;86.52
13241;BME280;6687;47.790;7.322;2022-12-18T15:34:00;100088.19;;;0.31;86.90
13241;BME280;6687;47.790;7.322;2022-12-18T15:36:28;100089.63;;;0.41;86.74
13241;BME280;6687;47.790;7.322;2022-12-18T15:38:56;100079.16;;;0.36;86.85
13241;BME280;6687;47.790;7.322;2022-12-18T15:41:24;100076.88;;;0.41;86.76
13241;BME280;6687;47.790;7.322;2022-12-18T15:43:53;100068.25;;;0.39;86.63
13241;BME280;6687;47.790;7.322;2022-12-18T15:46:23;100075.72;;;0.36;86.76
13241;BME280;6687;47.790;7.322;2022-12-18T15:48:51;100063.16;;;0.39;86.70
13241;BME280;6687;47.790;7.322;2022-12-18T15:51:20;100075.81;;;0.37;86.83
13241;BME280;6687;47.790;7.322;2022-12-18T15:53:48;100086.19;;;0.41;86.75
13241;BME280;6687;47.790;7.322;2022-12-18T15:56:16;100102.19;;;0.38;86.91
13241;BME280;6687;47.790;7.322;2022-12-18T15:59:01;100081.59;;;0.35;86.81
13241;BME280;6687;47.790;7.322;2022-12-18T16:01:30;100081.41;;;0.32;86.76
13241;BME280;6687;47.790;7.322;2022-12-18T16:03:57;100073.09;;;0.34;86.83
13241;BME280;6687;47.790;7.322;2022-12-18T16:06:24;100083.38;;;0.36;86.52
13241;BME280;6687;47.790;7.322;2022-12-18T16:08:50;100083.94;;;0.32;86.78
13241;BME280;6687;47.790;7.322;2022-12-18T16:11:21;100078.78;;;0.30;86.93
13241;BME280;6687;47.790;7.322;2022-12-18T16:14:05;100081.41;;;0.32;86.84
13241;BME280;6687;47.790;7.322;2022-12-18T16:16:34;100074.75;;;0.34;86.77
13241;BME280;6687;47.790;7.322;2022-12-18T16:19:00;100081.41;;;0.32;86.79
13241;BME280;6687;47.790;7.322;2022-12-18T16:21:27;100074.19;;;0.25;87.09
13241;BME280;6687;47.790;7.322;2022-12-18T16:23:54;100086.56;;;0.18;87.32
13241;BME280;6687;47.790;7.322;2022-12-18T16:26:21;100088.41;;;0.21;87.16
13241;BME280;6687;47.790;7.322;2022-12-18T16:28:47;100097.72;;;0.21;87.26
13241;BME280;6687;47.790;7.322;2022-12-18T16:31:14;100106.16;;;0.19;87.29
13241;BME280;6687;47.790;7.322;2022-12-18T16:33:42;100097.72;;;0.21;87.38
13241;BME280;6687;47.790;7.322;2022-12-18T16:36:09;100090.84;;;0.19;87.41
13241;BME280;6687;47.790;7.322;2022-12-18T16:38:36;100084.88;;;0.19;87.26
13241;BME280;6687;47.790;7.322;2022-12-18T16:41:17;100073.25;;;0.09;87.50
13241;BME280;6687;47.790;7.322;2022-12-18T16:44:00;100081.09;;;0.12;87.54
13241;BME280;6687;47.790;7.322;2022-12-18T16:46:28;100088.91;;;0.15;87.67
13241;BME280;6687;47.790;7.322;2022-12-18T16:48:58;100098.31;;;0.16;87.54
13241;BME280;6687;47.790;7.322;2022-12-18T16:51:25;100094.22;;;0.18;87.46
13241;BME280;6687;47.790;7.322;2022-12-18T16:53:52;100092.44;;;0.17;87.55
13241;BME280;6687;47.790;7.322;2022-12-18T16:56:19;100084.19;;;0.22;87.50
13241;BME280;6687;47.790;7.322;2022-12-18T16:58:50;100080.06;;;0.24;87.50
13241;BME280;6687;47.790;7.322;2022-12-18T17:01:16;100079.09;;;0.22;87.58
13241;BME280;6687;47.790;7.322;2022-12-18T17:03:43;100069.78;;;0.22;87.64
13241;BME280;6687;47.790;7.322;2022-12-18T17:06:11;100070.66;;;0.23;87.73
13241;BME280;6687;47.790;7.322;2022-12-18T17:08:38;100066.44;;;0.23;87.73
13241;BME280;6687;47.790;7.322;2022-12-18T17:11:06;100065.56;;;0.23;87.78
13241;BME280;6687;47.790;7.322;2022-12-18T17:13:33;100060.56;;;0.24;87.71
13241;BME280;6687;47.790;7.322;2022-12-18T17:16:04;100053.00;;;0.26;87.78
13241;BME280;6687;47.790;7.322;2022-12-18T17:18:32;100048.72;;;0.25;87.75
13241;BME280;6687;47.790;7.322;2022-12-18T17:21:00;100070.66;;;0.23;87.86
13241;BME280;6687;47.790;7.322;2022-12-18T17:23:28;100074.50;;;0.16;88.05
13241;BME280;6687;47.790;7.322;2022-12-18T17:25:56;100062.34;;;0.12;88.21
13241;BME280;6687;47.790;7.322;2022-12-18T17:28:23;100045.81;;;0.05;88.56
13241;BME280;6687;47.790;7.322;2022-12-18T17:30:51;100057.25;;;0.12;88.38
13241;BME280;6687;47.790;7.322;2022-12-18T17:33:17;100062.28;;;0.10;88.37
13241;BME280;6687;47.790;7.322;2022-12-18T17:35:44;100055.00;;;0.16;88.16
13241;BME280;6687;47.790;7.322;2022-12-18T17:38:11;100071.16;;;0.17;88.01
13241;BME280;6687;47.790;7.322;2022-12-18T17:40:40;100083.22;;;0.19;88.01
13241;BME280;6687;47.790;7.322;2022-12-18T17:43:07;100066.19;;;0.18;87.95
13241;BME280;6687;47.790;7.322;2022-12-18T17:45:35;100053.59;;;0.22;87.79
13241;BME280;6687;47.790;7.322;2022-12-18T17:48:02;100060.47;;;0.23;87.88
13241;BME280;6687;47.790;7.322;2022-12-18T17:50:29;100066.28;;;0.20;87.93
13241;BME280;6687;47.790;7.322;2022-12-18T17:52:56;100075.56;;;0.19;87.88
13241;BME280;6687;47.790;7.322;2022-12-18T17:55:23;100061.84;;;0.17;88.02
13241;BME280;6687;47.790;7.322;2022-12-18T17:57:52;100065.19;;;0.16;87.93
13241;BME280;6687;47.790;7.322;2022-12-18T18:00:20;100068.13;;;0.23;87.86
13241;BME280;6687;47.790;7.322;2022-12-18T18:02:46;100063.78;;;0.22;87.93
13241;BME280;6687;47.790;7.322;2022-12-18T18:05:13;100050.28;;;0.23;88.00
13241;BME280;6687;47.790;7.322;2022-12-18T18:07:40;100063.91;;;0.23;88.03
13241;BME280;6687;47.790;7.322;2022-12-18T18:10:08;100048.50;;;0.22;88.05
13241;BME280;6687;47.790;7.322;2022-12-18T18:12:35;100062.44;;;0.13;88.14
13241;BME280;6687;47.790;7.322;2022-12-18T18:15:21;100060.78;;;0.14;88.35
13241;BME280;6687;47.790;7.322;2022-12-18T18:17:48;100060.59;;;0.11;88.51
13241;BME280;6687;47.790;7.322;2022-12-18T18:20:15;100060.09;;;0.16;88.09
13241;BME280;6687;47.790;7.322;2022-12-18T18:22:42;100053.22;;;0.15;88.13
13241;BME280;6687;47.790;7.322;2022-12-18T18:25:09;100044.81;;;0.16;88.07
13241;BME280;6687;47.790;7.322;2022-12-18T18:27:36;100051.66;;;0.17;88.08
13241;BME280;6687;47.790;7.322;2022-12-18T18:30:05;100057.56;;;0.16;88.09
13241;BME280;6687;47.790;7.322;2022-12-18T18:32:35;100062.75;;;0.18;88.11
13241;BME280;6687;47.790;7.322;2022-12-18T18:35:05;100062.81;;;0.19;88.21
13241;BME280;6687;47.790;7.322;2022-12-18T18:37:32;100052.63;;;0.19;88.15
13241;BME280;6687;47.790;7.322;2022-12-18T18:39:59;100059.41;;;0.19;88.31
13241;BME280;6687;47.790;7.322;2022-12-18T18:42:26;100041.56;;;0.19;88.45
13241;BME280;6687;47.790;7.322;2022-12-18T18:44:52;100048.34;;;0.18;88.34
13241;BME280;6687;47.790;7.322;2022-12-18T18:47:19;100028.81;;;0.19;88.55
13241;BME280;6687;47.790;7.322;2022-12-18T18:49:47;100034.13;;;0.22;88.50
13241;BME280;6687;47.790;7.322;2022-12-18T18:52:14;100032.34;;;0.21;88.54
13241;BME280;6687;47.790;7.322;2022-12-18T18:54:41;100039.13;;;0.21;88.65
13241;BME280;6687;47.790;7.322;2022-12-18T18:57:08;100029.91;;;0.23;88.68
13241;BME280;6687;47.790;7.322;2022-12-18T18:59:36;100031.47;;;0.21;88.69
13241;BME280;6687;47.790;7.322;2022-12-18T19:02:02;100036.72;;;0.24;88.67
13241;BME280;6687;47.790;7.322;2022-12-18T19:04:29;100049.41;;;0.22;88.68
13241;BME280;6687;47.790;7.322;2022-12-18T19:06:57;100039.13;;;0.21;88.73
13241;BME280;6687;47.790;7.322;2022-12-18T19:09:24;100035.69;;;0.20;88.65
13241;BME280;6687;47.790;7.322;2022-12-18T19:11:51;100037.53;;;0.23;88.64
13241;BME280;6687;47.790;7.322;2022-12-18T19:14:35;100027.09;;;0.18;88.76
13241;BME280;6687;47.790;7.322;2022-12-18T19:17:02;100033.59;;;0.28;88.69
13241;BME280;6687;47.790;7.322;2022-12-18T19:19:29;100019.88;;;0.26;88.72
13241;BME280;6687;47.790;7.322;2022-12-18T19:21:55;100024.28;;;0.28;88.60
13241;BME280;6687;47.790;7.322;2022-12-18T19:24:24;100014.97;;;0.29;88.59
13241;BME280;6687;47.790;7.322;2022-12-18T19:26:50;100004.56;;;0.26;88.69
13241;BME280;6687;47.790;7.322;2022-12-18T19:29:18;99997.03;;;0.27;88.66
13241;BME280;6687;47.790;7.322;2022-12-18T19:31:45;100004.56;;;0.26;88.60
13241;BME280;6687;47.790;7.322;2022-12-18T19:34:11;100001.06;;;0.24;88.50
13241;BME280;6687;47.790;7.322;2022-12-18T19:36:39;100013.72;;;0.22;88.33